Airfield :
LOGIN :

Register | Disclaimer

   EN    FR    IT 

 










Legend :    VFR   Marginal VFR   IFR   Intensive IFR   Very Intensive IFR
Visi :
Ceiling :
>= 8 km
>= 3000ft
5 to 8 km
1000 to 3000 ft
1500m to 5 km
500 to 1000 ft
800 to 1500m
200 to 500 ft
< 800m
< 200 ft
Symbols :   Thunderstorms  Fog  Heavy snow  Heavy precipitations  Wind > 20 kt
SIGMETs :     Misc.  Thunderstorms  Icing  Turbulence  Mountain Waves  Volcanic Ashes







- Airport Elevation : 49 ft
- IATA code : SEN
- Download approach charts


EGMC - Southend

CURRENT METAR :
  • 221350Z 07011KT 9000 NSC 19/08 Q1004

EXPIRED METARs :
  • 221320Z 08009KT 9000 NSC 17/07 Q1005
  • 221250Z 08008KT 040V110 9000 NSC 18/08 Q1005
  • 221220Z 07009KT 9000 NSC 18/08 Q1005
  • 221150Z 08010KT 9000 NSC 18/08 Q1006
  • 221120Z 07006KT 040V110 9000 NSC 18/08 Q1006

TAF TAF EGMC
Valid from the 22 at 12:00 until the 22 at 21:00 UTC


221058Z 2212/2221 09009KT 9000 NSC
BECMG 2212/2214 15010KT CAVOK
No reported NOTAMs for that airfield.



MET'MAP, your aeronautical weather chart ! - Copyright ORBIFLY December 2007 - Disclaimer

ORBIFLY MET'MAP TEAM :

Programming & Development : Alexandra Zaïnal
Concept & Development : Baudouin d'Aumeries
Co-Development & Prog : Marc-Olivier Méhu
Technical & hardware support : Manuel Goepfert

Contact : metmap@orbifly.com




SOURCES & CREDITS :

   NOAA